Time;durP1;ratioP1;P1;durP2;ratioP2;P2;SDS_P1;SDS_P2;PMS_P1;PMS_P2;Temp;Humidity;BMP_temperature;BMP_pressure;BME280_temperature;BME280_humidity;BME280_pressure;Samples;Min_cycle;Max_cycle;Signal;HPM_P1;HPM_P2
2023/06/30 00:01:32;;;;;;;75.57;69.13;;;;;;;15.91;100.00;100991.78;5054575;28;20067;-79
2023/06/30 00:03:59;;;;;;;63.65;58.15;;;;;;;15.91;100.00;100988.31;5064498;28;20044;-78
2023/06/30 00:06:26;;;;;;;70.82;64.53;;;;;;;16.15;100.00;100983.72;5061148;28;20052;-79
2023/06/30 00:08:54;;;;;;;65.47;59.88;;;;;;;15.94;100.00;100999.34;5062025;28;20060;-78
2023/06/30 00:11:23;;;;;;;82.07;75.78;;;;;;;15.75;100.00;100987.97;5061313;28;20059;-78
2023/06/30 00:13:51;;;;;;;72.88;66.88;;;;;;;15.86;100.00;100988.22;5069749;28;20053;-78
2023/06/30 00:16:18;;;;;;;75.57;68.85;;;;;;;15.55;100.00;100982.94;5059717;28;20107;-79
2023/06/30 00:18:45;;;;;;;73.78;67.18;;;;;;;15.66;100.00;100983.16;5060751;28;20071;-80
2023/06/30 00:21:12;;;;;;;69.38;63.28;;;;;;;15.53;100.00;100990.38;5059519;28;20423;-78
2023/06/30 00:23:39;;;;;;;74.15;67.93;;;;;;;15.64;100.00;100986.06;5066638;28;20480;-78
2023/06/30 00:26:07;;;;;;;54.97;49.67;;;;;;;15.69;100.00;100994.25;5063258;28;20128;-78
2023/06/30 00:28:34;;;;;;;57.13;51.33;;;;;;;15.39;100.00;100991.66;5060517;28;20057;-79
2023/06/30 00:31:01;;;;;;;84.57;77.57;;;;;;;14.72;100.00;100994.50;5068167;28;20506;-78
2023/06/30 00:33:28;;;;;;;88.78;81.72;;;;;;;14.85;100.00;100990.81;5065516;28;20059;-79
2023/06/30 00:35:55;;;;;;;85.80;78.60;;;;;;;15.04;100.00;100995.06;5061189;28;20426;-78
2023/06/30 00:38:22;;;;;;;86.50;79.53;;;;;;;14.87;100.00;100994.91;5060731;28;20052;-79
2023/06/30 00:40:49;;;;;;;89.25;82.05;;;;;;;14.71;100.00;100987.53;5060329;28;20049;-78
2023/06/30 00:43:17;;;;;;;102.03;94.22;;;;;;;15.17;100.00;100987.91;5062696;28;20053;-78
2023/06/30 00:45:44;;;;;;;81.30;74.25;;;;;;;14.99;100.00;100984.25;5058345;28;20052;-79
2023/06/30 00:48:11;;;;;;;80.05;73.55;;;;;;;15.09;100.00;100995.19;5062838;28;20557;-79
2023/06/30 00:50:38;;;;;;;71.93;65.72;;;;;;;15.08;100.00;100996.25;5061520;28;20045;-78
2023/06/30 00:53:05;;;;;;;93.32;85.88;;;;;;;14.97;100.00;100990.84;5060125;28;20427;-78
2023/06/30 00:55:33;;;;;;;88.75;81.55;;;;;;;14.62;100.00;101004.94;5061190;28;20045;-78
2023/06/30 00:57:59;;;;;;;76.45;70.05;;;;;;;14.83;100.00;101001.75;5053591;28;20060;-78
2023/06/30 01:00:28;;;;;;;79.53;72.70;;;;;;;14.60;100.00;101004.31;5057698;28;20036;-78
2023/06/30 01:03:02;;;;;;;96.10;88.65;;;;;;;14.09;100.00;101000.97;5057830;28;20045;-78
2023/06/30 01:05:35;;;;;;;103.25;95.05;;;;;;;14.17;100.00;101006.03;5050887;28;20047;-79
2023/06/30 01:08:10;;;;;;;104.97;96.80;;;;;;;14.51;100.00;100998.47;5060528;28;20045;-79
2023/06/30 01:10:39;;;;;;;110.35;102.00;;;;;;;14.56;100.00;100993.28;5060067;28;20057;-79
2023/06/30 01:13:07;;;;;;;72.75;66.70;;;;;;;14.56;100.00;100995.94;5050787;28;20131;-78
2023/06/30 01:15:37;;;;;;;66.00;59.75;;;;;;;14.51;100.00;100992.28;5050959;28;20128;-78
2023/06/30 01:18:05;;;;;;;63.72;58.13;;;;;;;14.05;100.00;100996.31;5050307;28;20437;-78
2023/06/30 01:20:33;;;;;;;64.25;58.55;;;;;;;13.94;100.00;100993.31;5064584;28;20044;-78
2023/06/30 01:23:07;;;;;;;65.25;59.33;;;;;;;14.44;100.00;100985.16;5051923;28;20173;-78
2023/06/30 01:25:34;;;;;;;56.47;51.30;;;;;;;14.37;100.00;100991.63;5060492;28;20501;-78
2023/06/30 01:28:03;;;;;;;54.42;49.33;;;;;;;14.01;100.00;100989.75;5061595;28;20049;-78
2023/06/30 01:30:31;;;;;;;54.90;49.60;;;;;;;13.57;100.00;100995.13;5065157;28;20141;-78
2023/06/30 01:33:00;;;;;;;59.05;53.65;;;;;;;14.06;100.00;101000.59;5057041;28;20040;-78
2023/06/30 01:35:27;;;;;;;70.35;64.38;;;;;;;13.82;100.00;101003.09;5060382;28;20060;-78
2023/06/30 01:37:54;;;;;;;62.35;56.83;;;;;;;14.29;100.00;100994.63;5058378;28;20446;-78
2023/06/30 01:40:22;;;;;;;63.60;57.85;;;;;;;14.19;100.00;100992.44;5060452;28;20045;-79
2023/06/30 01:42:53;;;;;;;75.95;69.40;;;;;;;14.23;100.00;100995.50;5061969;28;20076;-78
2023/06/30 01:45:20;;;;;;;68.63;62.40;;;;;;;13.98;100.00;101001.72;5059023;28;20056;-78
2023/06/30 01:47:48;;;;;;;72.75;66.40;;;;;;;14.01;100.00;100993.28;5060031;28;20052;-78
2023/06/30 01:50:16;;;;;;;76.93;70.72;;;;;;;14.26;100.00;100987.84;5060148;28;20128;-79
2023/06/30 01:52:44;;;;;;;87.75;80.75;;;;;;;13.84;100.00;100994.88;5061187;28;20052;-79
2023/06/30 01:55:11;;;;;;;85.65;78.85;;;;;;;13.66;100.00;100991.13;5050337;28;20107;-78
2023/06/30 01:57:37;;;;;;;84.32;77.32;;;;;;;14.01;100.00;100982.59;5052293;28;20458;-78
2023/06/30 02:00:07;;;;;;;81.43;74.82;;;;;;;13.80;100.00;100985.66;5058785;28;20488;-78
2023/06/30 02:02:34;;;;;;;75.22;68.88;;;;;;;14.00;100.00;100980.13;5056990;28;20045;-79
2023/06/30 02:05:01;;;;;;;82.57;75.60;;;;;;;13.52;100.00;100989.63;5059445;28;20056;-79
2023/06/30 02:07:29;;;;;;;81.90;75.30;;;;;;;13.94;100.00;100995.19;5062421;28;20059;-79
2023/06/30 02:09:56;;;;;;;81.75;75.05;;;;;;;13.85;100.00;100985.81;5056390;28;20053;-79
2023/06/30 02:12:23;;;;;;;83.50;76.70;;;;;;;13.85;100.00;100983.16;5061126;28;20044;-78
2023/06/30 02:14:50;;;;;;;85.32;78.20;;;;;;;13.68;100.00;100997.09;5061016;28;20526;-78
2023/06/30 02:17:17;;;;;;;83.13;76.60;;;;;;;13.85;100.00;100989.31;5059305;28;20526;-78
2023/06/30 02:19:43;;;;;;;75.93;69.47;;;;;;;13.93;100.00;100989.03;5060113;28;20057;-78
2023/06/30 02:22:10;;;;;;;70.57;64.75;;;;;;;13.97;100.00;100982.19;5049884;28;20072;-79
2023/06/30 02:24:39;;;;;;;92.32;85.43;;;;;;;13.67;100.00;100995.44;5055443;28;20052;-79
2023/06/30 02:27:08;;;;;;;82.80;76.00;;;;;;;13.69;100.00;100997.91;5061947;28;20052;-78
2023/06/30 02:29:35;;;;;;;79.93;73.32;;;;;;;13.80;100.00;101009.69;5058946;28;20040;-78
2023/06/30 02:32:02;;;;;;;67.05;60.58;;;;;;;13.68;100.00;100997.09;5070245;28;20534;-81
2023/06/30 02:34:28;;;;;;;62.72;56.97;;;;;;;13.43;100.00;101007.75;5063790;28;20048;-78
2023/06/30 02:36:55;;;;;;;52.80;47.70;;;;;;;13.49;100.00;101003.41;5059076;28;20053;-82
2023/06/30 02:39:22;;;;;;;58.10;52.38;;;;;;;13.69;100.00;101004.03;5058642;28;20049;-81
2023/06/30 02:41:50;;;;;;;55.28;50.17;;;;;;;13.82;100.00;100988.94;5058513;28;20045;-82
2023/06/30 02:44:17;;;;;;;53.17;47.95;;;;;;;13.82;100.00;100997.75;5058964;28;20049;-81
2023/06/30 02:46:45;;;;;;;51.92;47.13;;;;;;;13.64;100.00;101003.88;5056773;28;20078;-81
2023/06/30 02:49:12;;;;;;;53.55;48.63;;;;;;;13.57;100.00;101003.13;5060877;28;20048;-82
2023/06/30 02:51:38;;;;;;;51.72;46.80;;;;;;;13.71;100.00;101003.84;5057556;28;20052;-81
2023/06/30 02:54:05;;;;;;;55.97;51.05;;;;;;;13.12;100.00;101013.09;5063133;28;20060;-81
2023/06/30 02:56:32;;;;;;;56.20;51.00;;;;;;;13.55;100.00;101010.53;5058546;28;20063;-81
2023/06/30 02:59:01;;;;;;;51.58;46.83;;;;;;;13.86;100.00;101008.84;5061903;28;20049;-82
2023/06/30 03:01:28;;;;;;;52.75;47.75;;;;;;;13.75;100.00;101013.84;5057053;28;20041;-78
2023/06/30 03:03:55;;;;;;;53.95;49.28;;;;;;;13.88;100.00;101015.56;5049206;28;20553;-78
2023/06/30 03:06:23;;;;;;;54.38;49.38;;;;;;;13.88;100.00;101012.91;5049125;28;20415;-79
2023/06/30 03:08:50;;;;;;;57.95;53.00;;;;;;;13.86;100.00;101019.53;5060332;28;20057;-79
2023/06/30 03:11:17;;;;;;;55.90;50.70;;;;;;;14.00;100.00;101018.31;5056102;28;20052;-78
2023/06/30 03:13:44;;;;;;;55.88;50.95;;;;;;;14.03;100.00;101009.88;5063025;28;20556;-78
2023/06/30 03:16:12;;;;;;;58.38;53.15;;;;;;;14.10;100.00;101005.31;5058383;28;20045;-79
2023/06/30 03:18:40;;;;;;;58.15;53.05;;;;;;;14.23;100.00;101012.34;5052985;28;20076;-78
2023/06/30 03:21:07;;;;;;;57.35;52.25;;;;;;;14.21;100.00;101006.41;5060755;28;20425;-78
2023/06/30 03:23:34;;;;;;;63.10;57.95;;;;;;;14.32;100.00;101008.34;5059164;28;20048;-78
2023/06/30 03:26:01;;;;;;;54.50;49.50;;;;;;;14.32;100.00;101015.53;5062034;28;20146;-80
2023/06/30 03:28:28;;;;;;;63.80;58.22;;;;;;;14.50;100.00;101010.19;5064549;28;20079;-82
2023/06/30 03:30:55;;;;;;;55.25;50.35;;;;;;;14.63;100.00;101019.91;5060340;28;20055;-81
2023/06/30 03:33:23;;;;;;;55.60;51.00;;;;;;;14.62;100.00;101013.75;5065696;28;20052;-81
2023/06/30 03:35:51;;;;;;;58.60;53.70;;;;;;;14.75;100.00;101014.63;5062977;28;20049;-81
2023/06/30 03:38:18;;;;;;;59.40;54.35;;;;;;;14.86;100.00;101016.53;5067108;28;20430;-82
2023/06/30 03:40:45;;;;;;;55.08;50.15;;;;;;;14.89;100.00;101016.09;5059270;28;20059;-81
2023/06/30 03:43:12;;;;;;;57.72;52.30;;;;;;;14.83;100.00;101011.63;5061718;28;20472;-81
2023/06/30 03:45:39;;;;;;;55.88;50.78;;;;;;;14.87;100.00;101012.81;5059051;28;20060;-81
2023/06/30 03:48:06;;;;;;;59.97;54.88;;;;;;;15.06;100.00;101011.69;5064153;28;20044;-81
2023/06/30 03:50:34;;;;;;;55.00;49.75;;;;;;;15.30;100.00;101012.56;5059698;28;20051;-80
2023/06/30 03:53:01;;;;;;;58.42;53.28;;;;;;;15.38;100.00;101006.09;5061839;28;20056;-81
2023/06/30 03:55:28;;;;;;;58.22;52.92;;;;;;;15.29;100.00;101008.28;5063589;28;20049;-82
2023/06/30 03:57:55;;;;;;;58.58;53.67;;;;;;;15.47;100.00;101002.03;5067527;28;20049;-81
2023/06/30 04:00:22;;;;;;;55.72;50.30;;;;;;;15.33;100.00;101004.09;5061022;28;20049;-78
2023/06/30 04:02:49;;;;;;;55.58;50.75;;;;;;;15.37;100.00;101003.63;5057785;28;20037;-78
2023/06/30 04:05:16;;;;;;;59.25;54.20;;;;;;;15.72;100.00;100999.16;5061490;28;20058;-78
2023/06/30 04:07:44;;;;;;;58.60;53.67;;;;;;;15.77;100.00;101001.13;5063030;28;20056;-78
2023/06/30 04:10:11;;;;;;;56.47;51.65;;;;;;;15.87;100.00;101003.22;5058624;28;20036;-78
2023/06/30 04:12:38;;;;;;;53.08;48.47;;;;;;;15.89;100.00;101007.31;5064146;28;20055;-78
2023/06/30 04:15:07;;;;;;;51.78;47.38;;;;;;;16.17;100.00;100995.03;5060634;28;20494;-79
2023/06/30 04:17:34;;;;;;;52.05;47.78;;;;;;;16.22;100.00;100992.47;5061813;28;20052;-78
2023/06/30 04:20:03;;;;;;;55.08;50.38;;;;;;;16.35;100.00;101000.22;5061580;28;20049;-78
2023/06/30 04:22:30;;;;;;;51.00;46.80;;;;;;;16.40;100.00;101000.34;5062960;28;20163;-78
2023/06/30 04:24:59;;;;;;;50.63;46.33;;;;;;;16.37;100.00;101002.66;5058208;28;20079;-79
2023/06/30 04:27:25;;;;;;;50.20;45.97;;;;;;;16.67;100.00;100997.09;5064969;28;20435;-78
2023/06/30 04:29:52;;;;;;;47.72;43.70;;;;;;;16.80;100.00;100993.34;5051747;28;20049;-78
2023/06/30 04:32:19;;;;;;;48.95;45.05;;;;;;;16.94;100.00;100989.28;5056623;28;20060;-81
2023/06/30 04:34:46;;;;;;;49.50;45.30;;;;;;;17.04;100.00;100991.38;5064420;28;20060;-81
2023/06/30 04:37:13;;;;;;;47.92;43.92;;;;;;;17.54;100.00;100990.56;5065016;28;20048;-81
2023/06/30 04:39:40;;;;;;;50.75;46.33;;;;;;;17.91;100.00;100998.91;5060862;28;20049;-78
2023/06/30 04:42:08;;;;;;;51.03;46.83;;;;;;;18.10;100.00;100994.06;5064603;28;20056;-78
2023/06/30 04:44:36;;;;;;;48.40;44.30;;;;;;;18.27;100.00;101002.88;5061422;28;20078;-78
2023/06/30 04:47:04;;;;;;;47.72;43.75;;;;;;;18.40;100.00;101000.91;5058619;28;20080;-79
2023/06/30 04:49:30;;;;;;;47.90;44.30;;;;;;;18.70;100.00;101011.19;5063471;28;20060;-79
2023/06/30 04:51:57;;;;;;;49.00;45.30;;;;;;;19.20;100.00;101002.00;5062470;28;20135;-79
2023/06/30 04:54:24;;;;;;;43.40;40.28;;;;;;;18.92;100.00;101001.22;5062616;28;20045;-78
2023/06/30 04:56:51;;;;;;;44.83;41.53;;;;;;;18.67;100.00;101004.44;5062784;28;20426;-78
2023/06/30 04:59:20;;;;;;;41.30;38.10;;;;;;;18.93;100.00;101002.03;5060972;28;20045;-82
2023/06/30 05:01:47;;;;;;;41.50;38.10;;;;;;;18.82;100.00;101000.28;5060772;28;20045;-79
2023/06/30 05:04:14;;;;;;;42.63;39.22;;;;;;;19.08;100.00;100996.78;5060167;28;20442;-79
2023/06/30 05:06:40;;;;;;;39.28;36.15;;;;;;;19.13;100.00;100999.53;5061184;28;20060;-81
2023/06/30 05:09:07;;;;;;;38.38;35.38;;;;;;;18.77;100.00;101001.88;5062144;28;20045;-78
2023/06/30 05:11:34;;;;;;;42.30;38.22;;;;;;;18.93;100.00;100997.44;5062093;28;20052;-78
2023/06/30 05:14:01;;;;;;;39.40;36.08;;;;;;;18.78;100.00;101013.44;5056566;28;20056;-81
2023/06/30 05:16:30;;;;;;;40.80;37.50;;;;;;;18.97;100.00;101005.81;5060066;28;20048;-78
2023/06/30 05:18:57;;;;;;;38.60;35.40;;;;;;;18.88;100.00;101015.41;5060708;28;20530;-81
2023/06/30 05:21:23;;;;;;;35.42;32.47;;;;;;;20.58;100.00;101009.06;5061636;28;20048;-78
2023/06/30 05:23:50;;;;;;;32.30;29.48;;;;;;;19.57;100.00;101003.88;5060664;28;20049;-81
2023/06/30 05:26:17;;;;;;;38.53;35.42;;;;;;;19.55;100.00;101008.75;5057555;28;20049;-81
2023/06/30 05:28:44;;;;;;;36.90;34.05;;;;;;;19.58;100.00;101011.72;5061693;28;20055;-81
2023/06/30 05:31:11;;;;;;;38.13;35.00;;;;;;;19.84;100.00;101011.91;5059517;28;20485;-81
2023/06/30 05:33:39;;;;;;;37.75;34.85;;;;;;;20.20;100.00;101010.22;5063245;28;20051;-81
2023/06/30 05:36:06;;;;;;;37.75;34.97;;;;;;;19.55;100.00;101014.13;5061096;28;20049;-81
2023/06/30 05:38:33;;;;;;;37.08;34.13;;;;;;;20.07;100.00;101013.41;5060846;28;20070;-81
2023/06/30 05:41:00;;;;;;;38.58;35.67;;;;;;;20.03;100.00;101012.28;5059594;28;20048;-81
2023/06/30 05:43:27;;;;;;;36.28;33.15;;;;;;;19.66;100.00;101013.94;5059814;28;20041;-81
2023/06/30 05:45:53;;;;;;;38.88;35.72;;;;;;;19.93;100.00;101015.75;5059833;28;20628;-82
2023/06/30 05:48:20;;;;;;;40.42;37.30;;;;;;;20.10;100.00;101019.06;5059498;28;20049;-78
2023/06/30 05:50:49;;;;;;;39.20;36.08;;;;;;;20.06;100.00;101009.06;5059971;28;20064;-79
2023/06/30 05:53:16;;;;;;;40.00;36.72;;;;;;;20.14;100.00;101005.88;5059906;28;20052;-79
2023/06/30 05:55:43;;;;;;;40.75;37.60;;;;;;;20.38;100.00;101006.25;5061572;28;20573;-78
2023/06/30 05:58:10;;;;;;;30.73;28.40;;;;;;;20.35;100.00;101004.88;5066689;28;20052;-79
2023/06/30 06:00:36;;;;;;;31.58;28.85;;;;;;;20.61;100.00;100993.41;5061789;28;20051;-79
2023/06/30 06:03:03;;;;;;;31.38;28.77;;;;;;;20.81;100.00;100991.53;5059768;28;20045;-79
2023/06/30 06:05:30;;;;;;;29.33;27.20;;;;;;;20.87;100.00;100988.88;5059835;28;20056;-79
2023/06/30 06:07:58;;;;;;;30.20;27.80;;;;;;;20.86;100.00;100990.75;5059775;28;20055;-79
2023/06/30 06:10:25;;;;;;;30.20;27.67;;;;;;;21.00;100.00;100988.34;5059173;28;20045;-79
2023/06/30 06:12:53;;;;;;;29.80;27.50;;;;;;;20.79;100.00;100996.41;5059570;28;20059;-79
2023/06/30 06:15:20;;;;;;;30.15;27.85;;;;;;;21.27;100.00;100993.47;5061240;28;20165;-79
2023/06/30 06:17:46;;;;;;;29.75;27.58;;;;;;;20.89;100.00;100990.22;5061691;28;20052;-79
2023/06/30 06:20:13;;;;;;;29.35;27.25;;;;;;;21.23;100.00;100985.09;5058948;28;20052;-79
2023/06/30 06:22:40;;;;;;;28.50;26.20;;;;;;;21.78;100.00;100992.63;5059650;28;20049;-79
2023/06/30 06:25:10;;;;;;;25.20;23.33;;;;;;;21.57;100.00;101000.78;5056377;28;20048;-80
2023/06/30 06:27:37;;;;;;;24.70;23.00;;;;;;;21.57;100.00;101000.78;5054713;28;20521;-81
2023/06/30 06:30:04;;;;;;;29.73;27.63;;;;;;;21.59;100.00;100997.81;5049738;28;20102;-81
2023/06/30 06:32:31;;;;;;;28.95;26.88;;;;;;;21.96;100.00;101000.16;5049854;28;20434;-81
2023/06/30 06:34:58;;;;;;;31.58;29.17;;;;;;;22.17;100.00;101000.94;5057179;28;20076;-82
2023/06/30 06:37:25;;;;;;;30.13;27.88;;;;;;;21.66;100.00;100995.63;5062842;28;20060;-81
2023/06/30 06:39:52;;;;;;;28.08;26.08;;;;;;;22.27;100.00;101003.59;5054960;28;20045;-81
2023/06/30 06:42:20;;;;;;;30.92;28.73;;;;;;;23.02;100.00;100992.63;5061675;28;20049;-80
2023/06/30 06:44:47;;;;;;;31.85;29.75;;;;;;;22.86;100.00;100996.50;5058415;28;20052;-80
2023/06/30 06:48:05;;;;;;;26.60;24.88;;;;;;;23.26;100.00;100994.59;5059064;28;20396;-82
2023/06/30 06:50:32;;;;;;;26.85;25.05;;;;;;;22.43;100.00;101009.75;5041136;28;20461;-81
2023/06/30 06:52:59;;;;;;;25.60;23.35;;;;;;;22.73;100.00;100991.72;5029096;28;20092;-80
2023/06/30 06:55:26;;;;;;;25.55;23.80;;;;;;;22.94;100.00;100998.66;5050563;28;20060;-81
2023/06/30 06:57:55;;;;;;;25.83;23.92;;;;;;;23.08;100.00;100996.91;5054845;28;20438;-82
2023/06/30 07:00:22;;;;;;;27.17;25.08;;;;;;;22.59;100.00;101000.44;5062368;28;20068;-82
2023/06/30 07:02:49;;;;;;;25.77;23.85;;;;;;;22.61;100.00;101005.59;5058878;28;20068;-81
2023/06/30 07:05:16;;;;;;;26.00;23.90;;;;;;;21.92;100.00;101007.19;5062895;28;20057;-81
2023/06/30 07:07:43;;;;;;;27.38;25.48;;;;;;;23.16;100.00;101002.81;5062544;28;20060;-81
2023/06/30 07:10:10;;;;;;;27.90;25.73;;;;;;;22.77;100.00;101009.03;5063559;28;20041;-81
2023/06/30 07:12:37;;;;;;;29.02;26.92;;;;;;;22.98;100.00;101005.13;5064237;28;20044;-81
2023/06/30 07:15:07;;;;;;;27.80;25.88;;;;;;;22.64;100.00;101011.25;5064583;28;20041;-80
2023/06/30 07:17:34;;;;;;;27.08;25.13;;;;;;;22.65;100.00;101009.34;5063138;28;20449;-81
2023/06/30 07:20:01;;;;;;;28.60;26.30;;;;;;;22.64;100.00;101010.47;5062189;28;20497;-82
2023/06/30 07:22:28;;;;;;;26.13;24.30;;;;;;;23.21;100.00;101005.50;5062152;28;20048;-82
2023/06/30 07:24:55;;;;;;;26.65;24.38;;;;;;;23.52;100.00;101011.44;5061727;28;20065;-82
2023/06/30 07:27:22;;;;;;;28.63;26.15;;;;;;;23.08;100.00;101010.44;5058560;28;20048;-81
2023/06/30 07:29:50;;;;;;;30.13;27.50;;;;;;;22.92;100.00;101003.50;5060790;28;20056;-81
2023/06/30 07:32:18;;;;;;;29.23;26.95;;;;;;;22.49;100.00;101013.25;5064113;28;20051;-82
2023/06/30 07:34:45;;;;;;;29.70;27.38;;;;;;;22.84;100.00;101004.09;5060130;28;20460;-81
2023/06/30 07:37:12;;;;;;;29.85;27.45;;;;;;;23.28;100.00;101000.56;5062167;28;20053;-82
2023/06/30 07:39:39;;;;;;;28.30;25.92;;;;;;;23.18;100.00;100997.91;5061830;28;20045;-82
2023/06/30 07:42:06;;;;;;;29.70;27.00;;;;;;;23.76;100.00;100998.75;5061319;28;20521;-82
2023/06/30 07:44:33;;;;;;;26.88;24.55;;;;;;;23.29;100.00;101000.25;5063887;28;20569;-81
2023/06/30 07:47:00;;;;;;;27.20;25.10;;;;;;;23.60;100.00;100999.16;5063986;28;20063;-81
2023/06/30 07:49:28;;;;;;;26.23;24.02;;;;;;;24.01;100.00;100988.72;5063958;28;20048;-80
2023/06/30 07:51:55;;;;;;;27.83;25.77;;;;;;;24.00;100.00;100987.13;5062279;28;20429;-81
2023/06/30 07:54:22;;;;;;;26.77;24.35;;;;;;;24.32;100.00;100989.16;5061053;28;20446;-80
2023/06/30 07:56:49;;;;;;;26.95;24.77;;;;;;;23.90;100.00;100988.03;5061701;28;20498;-81
2023/06/30 07:59:18;;;;;;;26.67;24.67;;;;;;;23.95;100.00;100984.47;5063201;28;20056;-81
2023/06/30 08:01:45;;;;;;;33.97;31.30;;;;;;;23.69;100.00;100981.19;5063718;28;20055;-80
2023/06/30 08:04:12;;;;;;;41.45;38.95;;;;;;;24.31;100.00;100975.88;5061933;28;20060;-81
2023/06/30 08:06:40;;;;;;;39.97;37.35;;;;;;;23.26;100.00;100973.72;5063543;28;20051;-81
2023/06/30 08:09:07;;;;;;;25.30;23.25;;;;;;;23.44;100.00;100984.97;5067811;28;20049;-80
2023/06/30 08:11:34;;;;;;;25.85;23.75;;;;;;;23.55;100.00;100971.03;5062671;28;20049;-80
2023/06/30 08:14:02;;;;;;;39.55;36.95;;;;;;;24.07;100.00;100981.34;5061564;28;20057;-81
2023/06/30 08:16:29;;;;;;;37.67;35.17;;;;;;;24.44;100.00;100973.25;5061100;28;20143;-80
2023/06/30 08:18:56;;;;;;;31.83;29.75;;;;;;;24.26;100.00;100978.66;5063644;28;20322;-79
2023/06/30 08:21:22;;;;;;;33.75;31.50;;;;;;;23.86;100.00;100983.47;5057955;28;20049;-80
2023/06/30 08:23:51;;;;;;;24.40;22.20;;;;;;;24.40;100.00;100974.94;5065964;28;20049;-79
2023/06/30 08:26:18;;;;;;;23.75;21.98;;;;;;;24.11;100.00;100971.50;5060152;28;20057;-81
2023/06/30 08:28:45;;;;;;;22.50;20.80;;;;;;;24.65;100.00;100967.56;5061969;28;20063;-81
2023/06/30 08:31:12;;;;;;;22.17;20.25;;;;;;;24.67;100.00;100963.44;5063860;28;20494;-80
2023/06/30 08:33:39;;;;;;;23.50;21.70;;;;;;;25.01;100.00;100972.44;5061468;28;20048;-80
2023/06/30 08:36:06;;;;;;;36.35;33.97;;;;;;;25.30;100.00;100956.75;5062066;28;20532;-81
2023/06/30 08:38:33;;;;;;;22.38;20.65;;;;;;;25.18;100.00;100959.16;5064235;28;20049;-81
2023/06/30 08:41:02;;;;;;;23.27;21.48;;;;;;;24.62;100.00;100958.09;5063552;28;20056;-81
2023/06/30 08:43:32;;;;;;;24.05;22.23;;;;;;;24.90;100.00;100959.03;5062573;28;20480;-81
2023/06/30 08:46:02;;;;;;;25.00;22.80;;;;;;;25.44;100.00;100959.47;5051956;28;20049;-81
2023/06/30 08:48:31;;;;;;;24.08;22.02;;;;;;;25.27;100.00;100954.63;5059809;28;20098;-81
2023/06/30 08:50:59;;;;;;;23.80;22.30;;;;;;;25.25;100.00;100945.97;5063586;28;20083;-80
2023/06/30 08:53:28;;;;;;;28.77;26.85;;;;;;;25.06;100.00;100948.72;5053499;28;20045;-80
2023/06/30 08:55:59;;;;;;;25.00;23.30;;;;;;;25.11;100.00;100945.09;5059279;28;20398;-79
2023/06/30 08:58:28;;;;;;;24.52;23.02;;;;;;;25.45;100.00;100944.00;5060672;28;20052;-79
2023/06/30 09:00:55;;;;;;;24.67;23.08;;;;;;;25.35;100.00;100947.69;5060465;28;20137;-79
2023/06/30 09:03:23;;;;;;;24.38;22.67;;;;;;;25.09;100.00;100942.69;5061516;28;20102;-79
2023/06/30 09:05:53;;;;;;;22.05;20.52;;;;;;;25.74;100.00;100936.34;5064701;28;20099;-80
2023/06/30 09:08:23;;;;;;;22.13;20.73;;;;;;;25.68;100.00;100934.81;5060497;28;20051;-79
2023/06/30 09:10:51;;;;;;;25.05;23.25;;;;;;;25.73;100.00;100942.91;5060724;28;20045;-80
2023/06/30 09:13:21;;;;;;;22.48;20.98;;;;;;;26.02;100.00;100937.19;5060796;28;20132;-79
2023/06/30 09:15:50;;;;;;;24.70;23.20;;;;;;;25.78;100.00;100931.91;5059989;28;20129;-80
2023/06/30 09:18:17;;;;;;;24.00;22.40;;;;;;;25.82;100.00;100943.03;5057791;28;20434;-80
2023/06/30 09:20:44;;;;;;;31.38;28.45;;;;;;;26.14;80.42;100935.81;5053037;28;20441;-79
2023/06/30 09:23:13;;;;;;;22.15;20.40;;;;;;;26.36;95.50;100930.44;5061812;28;20051;-79
2023/06/30 09:25:41;;;;;;;21.63;20.20;;;;;;;25.99;100.00;100935.06;5051865;28;20049;-80
2023/06/30 09:28:13;;;;;;;23.85;22.05;;;;;;;25.66;100.00;100934.34;5058885;28;20044;-80
2023/06/30 09:30:41;;;;;;;23.02;21.38;;;;;;;25.86;100.00;100927.69;5062000;28;20056;-80
2023/06/30 09:33:09;;;;;;;22.27;20.67;;;;;;;26.43;100.00;100917.19;5057397;28;20091;-79
2023/06/30 09:35:38;;;;;;;23.02;21.63;;;;;;;26.63;100.00;100926.06;5061750;28;20055;-80
2023/06/30 09:38:09;;;;;;;21.65;20.02;;;;;;;26.53;100.00;100921.63;5064531;28;20057;-79
2023/06/30 09:40:36;;;;;;;21.80;20.13;;;;;;;27.00;100.00;100908.50;5058713;28;20041;-80
2023/06/30 09:43:03;;;;;;;20.85;19.42;;;;;;;26.32;100.00;100913.09;5058384;28;20049;-81
2023/06/30 09:45:30;;;;;;;22.67;21.17;;;;;;;26.36;100.00;100916.03;5057255;28;20044;-80
2023/06/30 09:47:57;;;;;;;22.80;20.85;;;;;;;26.51;100.00;100915.72;5060348;28;20037;-80
2023/06/30 09:50:26;;;;;;;22.48;21.10;;;;;;;26.71;100.00;100898.84;5058405;28;20044;-80
2023/06/30 09:52:53;;;;;;;21.15;19.45;;;;;;;26.86;100.00;100892.22;5060067;28;20114;-79
2023/06/30 09:55:20;;;;;;;27.50;24.73;;;;;;;27.06;100.00;100903.72;5058558;28;20052;-81
2023/06/30 09:57:47;;;;;;;22.05;20.15;;;;;;;27.19;100.00;100900.13;5066758;28;20044;-80
2023/06/30 10:00:16;;;;;;;21.85;20.15;;;;;;;26.78;100.00;100897.63;5059291;28;20047;-80
2023/06/30 10:02:43;;;;;;;22.95;21.02;;;;;;;27.03;100.00;100893.47;5050550;28;20053;-81
2023/06/30 10:05:10;;;;;;;20.83;19.38;;;;;;;26.77;100.00;100891.38;5060213;28;20061;-79
2023/06/30 10:07:40;;;;;;;161.50;75.55;;;;;;;27.55;100.00;100888.25;5060887;28;20041;-80
2023/06/30 10:10:10;;;;;;;20.58;18.98;;;;;;;27.41;100.00;100885.63;5060872;28;20052;-80
2023/06/30 10:12:40;;;;;;;165.40;83.85;;;;;;;27.27;100.00;100876.78;5054904;28;20076;-82
2023/06/30 10:15:10;;;;;;;30.25;27.08;;;;;;;27.20;100.00;100888.09;5057041;28;20048;-80
2023/06/30 10:17:38;;;;;;;21.88;20.27;;;;;;;27.24;100.00;100880.13;5060414;28;20514;-81
2023/06/30 10:20:08;;;;;;;25.92;23.48;;;;;;;27.28;100.00;100873.72;5059327;28;20067;-81
2023/06/30 10:22:37;;;;;;;21.02;19.48;;;;;;;27.13;100.00;100877.63;5050339;28;20108;-81
2023/06/30 10:25:08;;;;;;;22.25;20.65;;;;;;;28.09;100.00;100867.84;5049354;28;20072;-82
2023/06/30 10:27:36;;;;;;;28.33;25.33;;;;;;;28.39;100.00;100859.81;5049727;28;20053;-82
2023/06/30 10:30:04;;;;;;;23.98;22.10;;;;;;;27.82;100.00;100862.66;5049384;28;20048;-80
2023/06/30 10:32:30;;;;;;;28.10;25.88;;;;;;;27.78;100.00;100865.25;5064688;28;20048;-82
2023/06/30 10:34:59;;;;;;;23.10;21.40;;;;;;;27.98;100.00;100863.00;5061180;28;20049;-81
2023/06/30 10:37:26;;;;;;;24.98;23.40;;;;;;;28.21;100.00;100850.03;5060944;28;20587;-82
2023/06/30 10:39:54;;;;;;;22.40;20.77;;;;;;;27.71;100.00;100859.41;5055160;28;20053;-81
2023/06/30 10:42:27;;;;;;;22.35;20.85;;;;;;;28.09;100.00;100864.31;5058816;28;20124;-81
2023/06/30 10:44:59;;;;;;;23.65;22.05;;;;;;;28.76;94.64;100863.78;5061557;28;20056;-82
2023/06/30 10:47:28;;;;;;;22.92;21.27;;;;;;;27.81;100.00;100861.88;5057984;28;20079;-82
2023/06/30 10:49:55;;;;;;;24.13;22.33;;;;;;;27.66;100.00;100858.75;5059548;28;20098;-81
2023/06/30 10:52:26;;;;;;;23.52;21.98;;;;;;;28.75;100.00;100851.25;5063530;28;20097;-81
2023/06/30 10:54:53;;;;;;;26.63;24.90;;;;;;;28.93;91.19;100854.75;5057300;28;20057;-83
2023/06/30 10:57:24;;;;;;;25.17;23.77;;;;;;;28.21;88.60;100863.69;5062969;28;20045;-80
2023/06/30 11:00:04;;;;;;;24.27;22.67;;;;;;;28.77;84.24;100850.94;5058615;28;20056;-81
2023/06/30 11:02:32;;;;;;;19.70;18.30;;;;;;;28.90;84.38;100851.88;5057435;28;20052;-82
2023/06/30 11:05:19;;;;;;;37.45;35.20;;;;;;;28.03;98.26;100852.75;5058619;28;20055;-81